• Join FlightAware (Why Join?)
  • Login
  • US Flag 
12:39PM EDT


 

Airport Tracker/Info


-or-


 

Live Flight TrackerFlight Track Log ✈ AMF1324 ✈ 20-Mar-2014 ✈ KBUF - KBGM

Flight Track Log - Related Links

Times and Time Zones

All times are in EDT time to prevent confusion due to time zone crossing. See the AMF1324 flight status page for this flight to view local times or setup timezone preferences in your user account.

Time Position Orientation Groundspeed Altitude Reporting Facility
EDT Latitude Longitude Course Direction KTS MPH feet Rate Location/Type
07:02AM 42.9333 -78.7333 216° Southwest 117 135 1,300  Level Buffalo TRACON
07:03AM 42.9167 -78.7500 216° Southwest 111 128 2,800 1,620 Climbing Buffalo TRACON
07:04AM 42.8833 -78.7000 132° Southeast 165 190 4,400 1,320 Climbing Buffalo TRACON
07:05AM 42.8736 -78.6494 105° East 166 191 5,300 960 Climbing Cleveland Center
07:06AM 42.8625 -78.5789 102° East 183 211 6,300 1,080 Climbing Cleveland Center
07:07AM 42.8450 -78.5119 110° East 185 213 7,600 1,320 Climbing Cleveland Center
07:07AM 42.8392 -78.4972 118° Southeast 189 217 7,900 1,680 Climbing Cleveland Center
07:07AM 42.8311 -78.4661 109° East 190 219 8,700 960 Climbing Cleveland Center
07:08AM 42.8278 -78.4450 102° East 185 213 8,800 840 Climbing Cleveland Center
07:08AM 42.8186 -78.3933 104° East 198 228 9,600 960 Climbing Cleveland Center
07:09AM 42.8131 -78.3656 105° East 197 227 9,800 360 Climbing Cleveland Center
07:09AM 42.7981 -78.3183 113° Southeast 219 252 10,000 240 Climbing Cleveland Center
07:10AM 42.7894 -78.2806 107° East 229 264 10,100  Climbing Cleveland Center
07:10AM 42.7711 -78.2272 115° Southeast 244 281 10,000 -120 Descending Cleveland Center
07:11AM 42.7647 -78.1986 107° East 239 275 10,000  Level Cleveland Center
07:11AM 42.7544 -78.1392 103° East 241 277 10,000  Level Cleveland Center
07:12AM 42.7486 -78.1061 104° East 241 277 10,000  Level Cleveland Center
07:12AM 42.7364 -78.0447 105° East 238 274 10,000  Level Cleveland Center
07:13AM 42.7317 -78.0142 102° East 240 276 10,000  Level Cleveland Center
07:13AM 42.7217 -77.9572 103° East 240 276 10,000  Level Cleveland Center
07:14AM 42.7142 -77.9242 107° East 239 275 10,000  Level Cleveland Center
07:14AM 42.7019 -77.8742 108° East 242 278 10,000  Level Cleveland Center
07:15AM 42.6925 -77.8400 111° Southeast 242 278 10,000  Level Cleveland Center
07:16AM 42.6661 -77.7503 112° Southeast 242 278 10,000  Level Cleveland Center
07:17AM 42.6417 -77.6667 112° Southeast 242 278 10,000  Level Cleveland Center
07:18AM 42.6206 -77.5864 110° East 233 268 10,000  Level Cleveland Center
07:19AM 42.5978 -77.5039 111° Southeast 231 266 10,000  Level Cleveland Center
07:20AM 42.5775 -77.4164 107° East 231 266 10,000  Level Cleveland Center
07:21AM 42.5589 -77.3308 106° East 235 270 10,000  Level Cleveland Center
07:22AM 42.5389 -77.2503 109° East 230 265 10,000  Level Cleveland Center
07:23AM 42.5108 -77.1533 111° Southeast 230 265 10,100  Climbing Cleveland Center
07:24AM 42.4908 -77.0694 108° East 231 266 10,100  Level Cleveland Center
07:25AM 42.4697 -76.9872 109° East 231 266 10,100  Level Cleveland Center
07:26AM 42.4478 -76.9036 110° East 232 267 10,100  Level Cleveland Center
07:27AM 42.4267 -76.8178 108° East 236 272 10,100  Level Cleveland Center
07:28AM 42.4047 -76.7322 109° East 232 267 10,100  Level New York Center
07:29AM 42.3836 -76.6517 110° East 232 267 10,100 -240 Level New York Center
07:30AM 42.3628 -76.5656 108° East 237 273 9,700 -780 Descending New York Center
07:31AM 42.3506 -76.4775 101° East 237 273 8,600 -1,380 Descending New York Center
07:32AM 42.3378 -76.3922 101° East 231 266 7,000 -1,500 Descending New York Center
07:33AM 42.3211 -76.3067 105° East 231 266 5,600 -1,260 Descending New York Center
07:34AM 42.3022 -76.2211 107° East 231 266 4,500 -960 Descending New York Center
07:35AM 42.2722 -76.1483 119° Southeast 226 260 3,700 -420 Descending New York Center
07:36AM 42.2419 -76.0789 120° Southeast 226 260 3,700 -180 Level New York Center
07:37AM 42.2117 -76.0092 120° Southeast 221 254 3,400 -480 Descending New York Center
07:38AM 42.1783 -75.9617 133° Southeast 198 228 2,800 -540 Descending New York Center
07:39AM 42.1867 -75.9147 77° East 188 216 2,400 -420 Descending New York Center